sensor_id;sensor_type;location;lat;lon;timestamp;temperature;humidity
65072;DHT22;51663;52.310;17.016;2022-08-19T00:02:59;39.60;33.30
65072;DHT22;51663;52.310;17.016;2022-08-19T00:06:01;39.40;33.60
65072;DHT22;51663;52.310;17.016;2022-08-19T00:09:05;39.70;33.40
65072;DHT22;51663;52.310;17.016;2022-08-19T00:12:07;39.60;33.60
65072;DHT22;51663;52.310;17.016;2022-08-19T00:15:13;39.50;33.70
65072;DHT22;51663;52.310;17.016;2022-08-19T00:18:15;39.30;33.80
65072;DHT22;51663;52.310;17.016;2022-08-19T00:21:17;39.20;33.90
65072;DHT22;51663;52.310;17.016;2022-08-19T00:24:19;39.40;33.80
65072;DHT22;51663;52.310;17.016;2022-08-19T00:27:22;39.50;33.40
65072;DHT22;51663;52.310;17.016;2022-08-19T00:30:27;39.60;33.40
65072;DHT22;51663;52.310;17.016;2022-08-19T00:33:30;39.70;33.20
65072;DHT22;51663;52.310;17.016;2022-08-19T00:36:34;39.50;33.60
65072;DHT22;51663;52.310;17.016;2022-08-19T00:39:36;39.80;33.20
65072;DHT22;51663;52.310;17.016;2022-08-19T00:42:40;39.80;33.00
65072;DHT22;51663;52.310;17.016;2022-08-19T00:45:42;40.10;32.60
65072;DHT22;51663;52.310;17.016;2022-08-19T00:48:45;40.10;32.60
65072;DHT22;51663;52.310;17.016;2022-08-19T00:51:50;40.10;32.60
65072;DHT22;51663;52.310;17.016;2022-08-19T00:54:56;40.10;32.50
65072;DHT22;51663;52.310;17.016;2022-08-19T00:58:05;40.20;32.40
65072;DHT22;51663;52.310;17.016;2022-08-19T01:01:08;40.20;32.40
65072;DHT22;51663;52.310;17.016;2022-08-19T01:04:13;40.20;32.50
65072;DHT22;51663;52.310;17.016;2022-08-19T01:07:15;40.20;32.40
65072;DHT22;51663;52.310;17.016;2022-08-19T01:10:24;40.30;32.30
65072;DHT22;51663;52.310;17.016;2022-08-19T01:13:31;40.10;32.60
65072;DHT22;51663;52.310;17.016;2022-08-19T01:16:53;40.00;32.70
65072;DHT22;51663;52.310;17.016;2022-08-19T01:19:56;39.80;32.80
65072;DHT22;51663;52.310;17.016;2022-08-19T01:22:58;39.80;32.70
65072;DHT22;51663;52.310;17.016;2022-08-19T01:26:00;39.90;32.70
65072;DHT22;51663;52.310;17.016;2022-08-19T01:29:03;39.80;32.80
65072;DHT22;51663;52.310;17.016;2022-08-19T01:32:08;39.70;32.90
65072;DHT22;51663;52.310;17.016;2022-08-19T01:35:31;39.70;33.00
65072;DHT22;51663;52.310;17.016;2022-08-19T01:38:37;39.70;32.70
65072;DHT22;51663;52.310;17.016;2022-08-19T01:41:45;39.50;33.30
65072;DHT22;51663;52.310;17.016;2022-08-19T01:44:48;39.10;33.80
65072;DHT22;51663;52.310;17.016;2022-08-19T01:47:50;39.30;33.60
65072;DHT22;51663;52.310;17.016;2022-08-19T01:51:03;39.20;33.60
65072;DHT22;51663;52.310;17.016;2022-08-19T01:54:09;39.50;33.30
65072;DHT22;51663;52.310;17.016;2022-08-19T01:57:14;39.50;33.80
65072;DHT22;51663;52.310;17.016;2022-08-19T02:00:18;39.60;33.10
65072;DHT22;51663;52.310;17.016;2022-08-19T02:03:21;39.70;32.90
65072;DHT22;51663;52.310;17.016;2022-08-19T02:06:24;39.60;33.10
65072;DHT22;51663;52.310;17.016;2022-08-19T02:09:27;39.70;33.00
65072;DHT22;51663;52.310;17.016;2022-08-19T02:12:30;39.70;32.90
65072;DHT22;51663;52.310;17.016;2022-08-19T02:15:32;39.80;32.60
65072;DHT22;51663;52.310;17.016;2022-08-19T02:18:34;39.80;32.70
65072;DHT22;51663;52.310;17.016;2022-08-19T02:21:36;39.70;32.80
65072;DHT22;51663;52.310;17.016;2022-08-19T02:24:39;39.60;33.00
65072;DHT22;51663;52.310;17.016;2022-08-19T02:27:41;39.70;32.90
65072;DHT22;51663;52.310;17.016;2022-08-19T02:30:44;39.60;33.60
65072;DHT22;51663;52.310;17.016;2022-08-19T02:33:47;39.50;33.00
65072;DHT22;51663;52.310;17.016;2022-08-19T02:36:49;39.40;33.00
65072;DHT22;51663;52.310;17.016;2022-08-19T02:39:53;39.40;33.30
65072;DHT22;51663;52.310;17.016;2022-08-19T02:42:55;39.40;33.10
65072;DHT22;51663;52.310;17.016;2022-08-19T02:45:58;39.50;33.30
65072;DHT22;51663;52.310;17.016;2022-08-19T02:49:03;39.50;33.20
65072;DHT22;51663;52.310;17.016;2022-08-19T02:52:07;39.50;33.20
65072;DHT22;51663;52.310;17.016;2022-08-19T02:55:09;39.70;33.00
65072;DHT22;51663;52.310;17.016;2022-08-19T02:58:12;39.60;33.00
65072;DHT22;51663;52.310;17.016;2022-08-19T03:01:30;39.60;33.10
65072;DHT22;51663;52.310;17.016;2022-08-19T03:04:33;39.20;33.30
65072;DHT22;51663;52.310;17.016;2022-08-19T03:07:36;39.20;33.50
65072;DHT22;51663;52.310;17.016;2022-08-19T03:10:43;38.90;34.20
65072;DHT22;51663;52.310;17.016;2022-08-19T03:13:47;39.00;34.20
65072;DHT22;51663;52.310;17.016;2022-08-19T03:16:52;39.40;33.40
65072;DHT22;51663;52.310;17.016;2022-08-19T03:19:54;39.50;33.10
65072;DHT22;51663;52.310;17.016;2022-08-19T03:22:56;39.60;33.10
65072;DHT22;51663;52.310;17.016;2022-08-19T03:26:03;39.50;33.00
65072;DHT22;51663;52.310;17.016;2022-08-19T03:29:18;39.60;33.00
65072;DHT22;51663;52.310;17.016;2022-08-19T03:32:31;39.50;33.00
65072;DHT22;51663;52.310;17.016;2022-08-19T03:35:34;39.50;33.00
65072;DHT22;51663;52.310;17.016;2022-08-19T03:38:44;39.40;33.20
65072;DHT22;51663;52.310;17.016;2022-08-19T03:41:48;39.40;33.30
65072;DHT22;51663;52.310;17.016;2022-08-19T03:45:13;39.50;33.20
65072;DHT22;51663;52.310;17.016;2022-08-19T03:48:15;39.40;33.30
65072;DHT22;51663;52.310;17.016;2022-08-19T03:51:27;39.20;33.50
65072;DHT22;51663;52.310;17.016;2022-08-19T03:54:33;39.10;33.70
65072;DHT22;51663;52.310;17.016;2022-08-19T03:57:36;39.00;33.80
65072;DHT22;51663;52.310;17.016;2022-08-19T04:00:42;39.30;33.50
65072;DHT22;51663;52.310;17.016;2022-08-19T04:03:45;39.30;33.50
65072;DHT22;51663;52.310;17.016;2022-08-19T04:06:51;39.50;33.20
65072;DHT22;51663;52.310;17.016;2022-08-19T04:09:53;39.40;33.20
65072;DHT22;51663;52.310;17.016;2022-08-19T04:12:55;39.30;33.30
65072;DHT22;51663;52.310;17.016;2022-08-19T04:15:57;39.30;33.50
65072;DHT22;51663;52.310;17.016;2022-08-19T04:19:01;39.20;33.50
65072;DHT22;51663;52.310;17.016;2022-08-19T04:22:03;39.00;34.00
65072;DHT22;51663;52.310;17.016;2022-08-19T04:25:06;39.20;34.00
65072;DHT22;51663;52.310;17.016;2022-08-19T04:28:09;39.30;33.50
65072;DHT22;51663;52.310;17.016;2022-08-19T04:31:17;39.30;33.60
65072;DHT22;51663;52.310;17.016;2022-08-19T04:34:21;39.20;33.50
65072;DHT22;51663;52.310;17.016;2022-08-19T04:37:25;39.30;33.60
65072;DHT22;51663;52.310;17.016;2022-08-19T04:40:41;38.90;34.00
65072;DHT22;51663;52.310;17.016;2022-08-19T04:44:02;38.80;34.10
65072;DHT22;51663;52.310;17.016;2022-08-19T04:47:05;39.00;34.00
65072;DHT22;51663;52.310;17.016;2022-08-19T04:50:12;38.90;34.20
65072;DHT22;51663;52.310;17.016;2022-08-19T04:53:14;38.80;34.50
65072;DHT22;51663;52.310;17.016;2022-08-19T04:56:17;39.20;34.10
65072;DHT22;51663;52.310;17.016;2022-08-19T04:59:21;39.40;33.70
65072;DHT22;51663;52.310;17.016;2022-08-19T05:02:23;39.80;33.20
65072;DHT22;51663;52.310;17.016;2022-08-19T05:05:26;39.70;33.10
65072;DHT22;51663;52.310;17.016;2022-08-19T05:08:28;39.80;32.90
65072;DHT22;51663;52.310;17.016;2022-08-19T05:11:35;40.10;32.60
65072;DHT22;51663;52.310;17.016;2022-08-19T05:14:39;40.40;32.30
65072;DHT22;51663;52.310;17.016;2022-08-19T05:17:41;40.70;32.00
65072;DHT22;51663;52.310;17.016;2022-08-19T05:21:08;41.50;31.20
65072;DHT22;51663;52.310;17.016;2022-08-19T05:24:29;41.20;31.00
65072;DHT22;51663;52.310;17.016;2022-08-19T05:27:32;41.80;30.70
65072;DHT22;51663;52.310;17.016;2022-08-19T05:30:35;41.70;30.50
65072;DHT22;51663;52.310;17.016;2022-08-19T05:33:48;41.50;30.40
65072;DHT22;51663;52.310;17.016;2022-08-19T05:36:57;41.10;31.00
65072;DHT22;51663;52.310;17.016;2022-08-19T05:39:59;41.10;31.20
65072;DHT22;51663;52.310;17.016;2022-08-19T05:43:04;41.10;31.60
65072;DHT22;51663;52.310;17.016;2022-08-19T05:46:06;40.70;31.60
65072;DHT22;51663;52.310;17.016;2022-08-19T05:49:09;40.70;31.80
65072;DHT22;51663;52.310;17.016;2022-08-19T05:52:13;41.20;31.20
65072;DHT22;51663;52.310;17.016;2022-08-19T05:55:19;41.50;30.80
65072;DHT22;51663;52.310;17.016;2022-08-19T05:58:22;42.10;30.20
65072;DHT22;51663;52.310;17.016;2022-08-19T06:01:29;42.00;30.30
65072;DHT22;51663;52.310;17.016;2022-08-19T06:04:30;42.60;29.80
65072;DHT22;51663;52.310;17.016;2022-08-19T06:07:33;43.10;29.40
65072;DHT22;51663;52.310;17.016;2022-08-19T06:10:39;43.40;29.00
65072;DHT22;51663;52.310;17.016;2022-08-19T06:13:43;43.90;28.50
65072;DHT22;51663;52.310;17.016;2022-08-19T06:16:46;44.00;28.30
65072;DHT22;51663;52.310;17.016;2022-08-19T06:19:48;44.10;28.10
65072;DHT22;51663;52.310;17.016;2022-08-19T06:22:51;44.20;28.50
65072;DHT22;51663;52.310;17.016;2022-08-19T06:25:54;44.20;28.00
65072;DHT22;51663;52.310;17.016;2022-08-19T06:28:57;44.00;28.30
65072;DHT22;51663;52.310;17.016;2022-08-19T06:32:01;44.30;28.10
65072;DHT22;51663;52.310;17.016;2022-08-19T06:35:04;44.10;27.90
65072;DHT22;51663;52.310;17.016;2022-08-19T06:38:07;43.90;28.10
65072;DHT22;51663;52.310;17.016;2022-08-19T06:41:11;43.90;28.50
65072;DHT22;51663;52.310;17.016;2022-08-19T06:44:14;44.00;28.30
65072;DHT22;51663;52.310;17.016;2022-08-19T06:47:19;44.00;28.20
65072;DHT22;51663;52.310;17.016;2022-08-19T06:50:25;43.70;28.30
65072;DHT22;51663;52.310;17.016;2022-08-19T06:53:27;43.90;28.20
65072;DHT22;51663;52.310;17.016;2022-08-19T06:56:32;44.30;28.10
65072;DHT22;51663;52.310;17.016;2022-08-19T06:59:36;44.60;27.80
65072;DHT22;51663;52.310;17.016;2022-08-19T07:02:40;44.50;27.70
65072;DHT22;51663;52.310;17.016;2022-08-19T07:05:44;44.80;27.60
65072;DHT22;51663;52.310;17.016;2022-08-19T07:08:48;45.30;27.30
65072;DHT22;51663;52.310;17.016;2022-08-19T07:11:51;45.60;27.20
65072;DHT22;51663;52.310;17.016;2022-08-19T07:14:54;45.70;26.80
65072;DHT22;51663;52.310;17.016;2022-08-19T07:17:56;46.10;26.80
65072;DHT22;51663;52.310;17.016;2022-08-19T07:21:06;46.40;26.30
65072;DHT22;51663;52.310;17.016;2022-08-19T07:24:10;47.30;25.70
65072;DHT22;51663;52.310;17.016;2022-08-19T07:27:14;47.80;25.50
65072;DHT22;51663;52.310;17.016;2022-08-19T07:30:16;48.10;24.90
65072;DHT22;51663;52.310;17.016;2022-08-19T07:33:18;48.30;24.80
65072;DHT22;51663;52.310;17.016;2022-08-19T07:36:24;48.30;24.40
65072;DHT22;51663;52.310;17.016;2022-08-19T07:39:29;48.60;24.40
65072;DHT22;51663;52.310;17.016;2022-08-19T07:42:32;48.70;24.20
65072;DHT22;51663;52.310;17.016;2022-08-19T07:45:34;48.60;24.40
65072;DHT22;51663;52.310;17.016;2022-08-19T07:48:36;48.70;24.30
65072;DHT22;51663;52.310;17.016;2022-08-19T07:51:39;48.80;24.30
65072;DHT22;51663;52.310;17.016;2022-08-19T07:54:40;48.90;24.10
65072;DHT22;51663;52.310;17.016;2022-08-19T07:57:43;48.80;24.20
65072;DHT22;51663;52.310;17.016;2022-08-19T08:00:51;48.70;24.40
65072;DHT22;51663;52.310;17.016;2022-08-19T08:03:54;48.70;24.30
65072;DHT22;51663;52.310;17.016;2022-08-19T08:07:15;48.60;24.40
65072;DHT22;51663;52.310;17.016;2022-08-19T08:10:37;48.90;24.30
65072;DHT22;51663;52.310;17.016;2022-08-19T08:13:39;48.70;24.30
65072;DHT22;51663;52.310;17.016;2022-08-19T08:16:43;48.60;24.20
65072;DHT22;51663;52.310;17.016;2022-08-19T08:19:48;48.60;24.40
65072;DHT22;51663;52.310;17.016;2022-08-19T08:22:52;48.70;24.40
65072;DHT22;51663;52.310;17.016;2022-08-19T08:26:13;48.80;24.20
65072;DHT22;51663;52.310;17.016;2022-08-19T08:29:17;48.60;24.20
65072;DHT22;51663;52.310;17.016;2022-08-19T08:32:21;48.60;24.50
65072;DHT22;51663;52.310;17.016;2022-08-19T08:35:23;48.30;24.40
65072;DHT22;51663;52.310;17.016;2022-08-19T08:38:25;47.70;24.80
65072;DHT22;51663;52.310;17.016;2022-08-19T08:45:10;46.80;25.80
65072;DHT22;51663;52.310;17.016;2022-08-19T08:48:22;46.60;26.20
65072;DHT22;51663;52.310;17.016;2022-08-19T08:51:40;46.50;26.20
65072;DHT22;51663;52.310;17.016;2022-08-19T08:54:52;46.30;26.60
65072;DHT22;51663;52.310;17.016;2022-08-19T08:58:08;46.20;26.80
65072;DHT22;51663;52.310;17.016;2022-08-19T09:01:21;46.20;26.60
65072;DHT22;51663;52.310;17.016;2022-08-19T09:04:33;45.90;27.00
65072;DHT22;51663;52.310;17.016;2022-08-19T09:07:57;45.90;26.90
65072;DHT22;51663;52.310;17.016;2022-08-19T09:11:13;45.90;27.00
65072;DHT22;51663;52.310;17.016;2022-08-19T09:14:57;46.00;26.90
65072;DHT22;51663;52.310;17.016;2022-08-19T09:18:02;45.90;26.50
65072;DHT22;51663;52.310;17.016;2022-08-19T09:21:08;46.00;27.40
65072;DHT22;51663;52.310;17.016;2022-08-19T09:24:10;46.00;26.80
65072;DHT22;51663;52.310;17.016;2022-08-19T09:27:13;45.90;26.70
65072;DHT22;51663;52.310;17.016;2022-08-19T09:30:23;45.90;26.90
65072;DHT22;51663;52.310;17.016;2022-08-19T09:33:26;45.70;26.80
65072;DHT22;51663;52.310;17.016;2022-08-19T09:36:31;46.00;26.60
65072;DHT22;51663;52.310;17.016;2022-08-19T09:39:38;46.10;26.30
65072;DHT22;51663;52.310;17.016;2022-08-19T09:42:43;46.10;26.30
65072;DHT22;51663;52.310;17.016;2022-08-19T09:45:52;46.10;25.70
65072;DHT22;51663;52.310;17.016;2022-08-19T09:48:56;46.00;26.00
65072;DHT22;51663;52.310;17.016;2022-08-19T09:52:10;45.90;26.00
65072;DHT22;51663;52.310;17.016;2022-08-19T09:55:14;46.10;25.90
65072;DHT22;51663;52.310;17.016;2022-08-19T09:58:18;46.00;26.10
65072;DHT22;51663;52.310;17.016;2022-08-19T10:01:29;45.90;26.30
65072;DHT22;51663;52.310;17.016;2022-08-19T10:04:31;45.70;26.30
65072;DHT22;51663;52.310;17.016;2022-08-19T10:07:52;45.90;26.00
65072;DHT22;51663;52.310;17.016;2022-08-19T10:10:55;45.80;25.90
65072;DHT22;51663;52.310;17.016;2022-08-19T10:14:01;45.80;25.70
65072;DHT22;51663;52.310;17.016;2022-08-19T10:17:04;45.70;25.80
65072;DHT22;51663;52.310;17.016;2022-08-19T10:20:21;45.90;26.10
65072;DHT22;51663;52.310;17.016;2022-08-19T10:23:24;45.90;25.90
65072;DHT22;51663;52.310;17.016;2022-08-19T10:26:31;46.00;26.20
65072;DHT22;51663;52.310;17.016;2022-08-19T10:29:34;45.90;25.80
65072;DHT22;51663;52.310;17.016;2022-08-19T10:32:47;45.90;25.70
65072;DHT22;51663;52.310;17.016;2022-08-19T10:35:49;45.50;26.00
65072;DHT22;51663;52.310;17.016;2022-08-19T10:39:00;45.60;25.70
65072;DHT22;51663;52.310;17.016;2022-08-19T10:42:07;45.90;25.10
65072;DHT22;51663;52.310;17.016;2022-08-19T10:45:12;45.90;24.80
65072;DHT22;51663;52.310;17.016;2022-08-19T10:48:14;46.20;24.90
65072;DHT22;51663;52.310;17.016;2022-08-19T10:51:20;46.40;24.90
65072;DHT22;51663;52.310;17.016;2022-08-19T10:54:49;46.20;24.90
65072;DHT22;51663;52.310;17.016;2022-08-19T10:58:14;46.10;24.80
65072;DHT22;51663;52.310;17.016;2022-08-19T11:01:16;46.60;24.20
65072;DHT22;51663;52.310;17.016;2022-08-19T11:04:19;46.50;24.40
65072;DHT22;51663;52.310;17.016;2022-08-19T11:07:21;46.80;24.00
65072;DHT22;51663;52.310;17.016;2022-08-19T11:10:26;46.80;24.30
65072;DHT22;51663;52.310;17.016;2022-08-19T11:13:33;46.80;24.40
65072;DHT22;51663;52.310;17.016;2022-08-19T11:16:40;46.80;24.60
65072;DHT22;51663;52.310;17.016;2022-08-19T11:19:43;46.90;24.20
65072;DHT22;51663;52.310;17.016;2022-08-19T11:22:45;46.70;24.60
65072;DHT22;51663;52.310;17.016;2022-08-19T11:25:49;46.80;24.20
65072;DHT22;51663;52.310;17.016;2022-08-19T11:28:52;46.40;24.50
65072;DHT22;51663;52.310;17.016;2022-08-19T11:31:56;46.60;24.20
65072;DHT22;51663;52.310;17.016;2022-08-19T11:34:58;46.30;24.80
65072;DHT22;51663;52.310;17.016;2022-08-19T11:38:01;46.60;24.40
65072;DHT22;51663;52.310;17.016;2022-08-19T11:41:08;46.90;24.10
65072;DHT22;51663;52.310;17.016;2022-08-19T11:44:11;46.60;24.60
65072;DHT22;51663;52.310;17.016;2022-08-19T11:47:15;46.60;24.60
65072;DHT22;51663;52.310;17.016;2022-08-19T11:50:18;46.60;24.60
65072;DHT22;51663;52.310;17.016;2022-08-19T11:53:20;46.70;24.40
65072;DHT22;51663;52.310;17.016;2022-08-19T11:56:23;46.60;24.40
65072;DHT22;51663;52.310;17.016;2022-08-19T11:59:26;46.50;24.80
65072;DHT22;51663;52.310;17.016;2022-08-19T12:02:30;46.50;24.60
65072;DHT22;51663;52.310;17.016;2022-08-19T12:05:32;46.60;24.50
65072;DHT22;51663;52.310;17.016;2022-08-19T12:08:35;46.80;24.50
65072;DHT22;51663;52.310;17.016;2022-08-19T12:11:38;46.90;24.40
65072;DHT22;51663;52.310;17.016;2022-08-19T12:14:41;46.80;24.70
65072;DHT22;51663;52.310;17.016;2022-08-19T12:17:43;46.80;24.30
65072;DHT22;51663;52.310;17.016;2022-08-19T12:20:45;46.70;24.40
65072;DHT22;51663;52.310;17.016;2022-08-19T12:23:49;46.60;24.20
65072;DHT22;51663;52.310;17.016;2022-08-19T12:26:56;46.70;24.30
65072;DHT22;51663;52.310;17.016;2022-08-19T12:30:05;46.80;24.60
65072;DHT22;51663;52.310;17.016;2022-08-19T12:33:08;46.80;24.20
65072;DHT22;51663;52.310;17.016;2022-08-19T12:36:12;46.90;24.30
65072;DHT22;51663;52.310;17.016;2022-08-19T12:39:14;47.00;24.20
65072;DHT22;51663;52.310;17.016;2022-08-19T12:42:16;47.10;24.40
65072;DHT22;51663;52.310;17.016;2022-08-19T12:45:19;47.00;24.50
65072;DHT22;51663;52.310;17.016;2022-08-19T12:48:21;47.10;24.40
65072;DHT22;51663;52.310;17.016;2022-08-19T12:51:35;47.30;24.10
65072;DHT22;51663;52.310;17.016;2022-08-19T12:54:37;47.40;24.70
65072;DHT22;51663;52.310;17.016;2022-08-19T12:57:40;47.30;25.10
65072;DHT22;51663;52.310;17.016;2022-08-19T13:00:42;46.90;25.60
65072;DHT22;51663;52.310;17.016;2022-08-19T13:03:47;46.90;25.30
65072;DHT22;51663;52.310;17.016;2022-08-19T13:06:51;47.20;25.50
65072;DHT22;51663;52.310;17.016;2022-08-19T13:09:54;47.10;25.00
65072;DHT22;51663;52.310;17.016;2022-08-19T13:12:56;47.30;25.00
65072;DHT22;51663;52.310;17.016;2022-08-19T13:16:03;47.10;25.70
65072;DHT22;51663;52.310;17.016;2022-08-19T13:19:06;47.10;25.10
65072;DHT22;51663;52.310;17.016;2022-08-19T13:22:09;47.00;25.40
65072;DHT22;51663;52.310;17.016;2022-08-19T13:25:16;47.10;25.50
65072;DHT22;51663;52.310;17.016;2022-08-19T13:28:20;46.90;25.50
65072;DHT22;51663;52.310;17.016;2022-08-19T13:31:32;46.90;25.90
65072;DHT22;51663;52.310;17.016;2022-08-19T13:34:53;46.90;25.60
65072;DHT22;51663;52.310;17.016;2022-08-19T13:37:55;47.00;25.60
65072;DHT22;51663;52.310;17.016;2022-08-19T13:41:04;47.10;25.40
65072;DHT22;51663;52.310;17.016;2022-08-19T13:44:14;47.10;25.40
65072;DHT22;51663;52.310;17.016;2022-08-19T13:47:17;46.80;25.50
65072;DHT22;51663;52.310;17.016;2022-08-19T13:50:24;47.00;25.30
65072;DHT22;51663;52.310;17.016;2022-08-19T13:53:30;46.90;25.40
65072;DHT22;51663;52.310;17.016;2022-08-19T13:56:32;47.20;25.30
65072;DHT22;51663;52.310;17.016;2022-08-19T13:59:35;47.10;25.50
65072;DHT22;51663;52.310;17.016;2022-08-19T14:02:38;47.20;25.40
65072;DHT22;51663;52.310;17.016;2022-08-19T14:05:41;47.50;25.30
65072;DHT22;51663;52.310;17.016;2022-08-19T14:08:43;47.30;25.50
65072;DHT22;51663;52.310;17.016;2022-08-19T14:11:47;47.30;25.30
65072;DHT22;51663;52.310;17.016;2022-08-19T14:14:49;47.40;25.30
65072;DHT22;51663;52.310;17.016;2022-08-19T14:17:51;47.40;25.30
65072;DHT22;51663;52.310;17.016;2022-08-19T14:20:54;47.10;25.50
65072;DHT22;51663;52.310;17.016;2022-08-19T14:23:57;47.10;25.40
65072;DHT22;51663;52.310;17.016;2022-08-19T14:26:59;47.40;25.30
65072;DHT22;51663;52.310;17.016;2022-08-19T14:30:03;47.10;25.30
65072;DHT22;51663;52.310;17.016;2022-08-19T14:33:06;47.10;25.50
65072;DHT22;51663;52.310;17.016;2022-08-19T14:36:10;46.90;25.60
65072;DHT22;51663;52.310;17.016;2022-08-19T14:39:18;46.90;25.60
65072;DHT22;51663;52.310;17.016;2022-08-19T14:42:21;46.50;26.20
65072;DHT22;51663;52.310;17.016;2022-08-19T14:45:23;46.50;26.00
65072;DHT22;51663;52.310;17.016;2022-08-19T14:48:25;46.50;26.20
65072;DHT22;51663;52.310;17.016;2022-08-19T14:51:30;46.50;26.10
65072;DHT22;51663;52.310;17.016;2022-08-19T14:54:33;46.40;26.30
65072;DHT22;51663;52.310;17.016;2022-08-19T14:57:36;46.40;26.10
65072;DHT22;51663;52.310;17.016;2022-08-19T15:00:39;46.50;26.40
65072;DHT22;51663;52.310;17.016;2022-08-19T15:03:41;46.40;26.20
65072;DHT22;51663;52.310;17.016;2022-08-19T15:06:43;46.50;26.20
65072;DHT22;51663;52.310;17.016;2022-08-19T15:09:45;46.40;26.10
65072;DHT22;51663;52.310;17.016;2022-08-19T15:12:52;46.30;26.20
65072;DHT22;51663;52.310;17.016;2022-08-19T15:15:58;46.30;26.60
65072;DHT22;51663;52.310;17.016;2022-08-19T15:19:20;46.30;26.50
65072;DHT22;51663;52.310;17.016;2022-08-19T15:22:22;46.20;26.40
65072;DHT22;51663;52.310;17.016;2022-08-19T15:25:24;46.10;26.40
65072;DHT22;51663;52.310;17.016;2022-08-19T15:28:26;46.10;26.60
65072;DHT22;51663;52.310;17.016;2022-08-19T15:31:29;46.00;26.50
65072;DHT22;51663;52.310;17.016;2022-08-19T15:34:39;46.00;26.70
65072;DHT22;51663;52.310;17.016;2022-08-19T15:37:41;45.90;26.50
65072;DHT22;51663;52.310;17.016;2022-08-19T15:40:43;45.80;26.60
65072;DHT22;51663;52.310;17.016;2022-08-19T15:43:47;45.70;26.80
65072;DHT22;51663;52.310;17.016;2022-08-19T15:46:49;45.60;26.80
65072;DHT22;51663;52.310;17.016;2022-08-19T15:49:51;45.40;26.90
65072;DHT22;51663;52.310;17.016;2022-08-19T15:53:02;45.30;26.90
65072;DHT22;51663;52.310;17.016;2022-08-19T15:56:05;45.30;26.90
65072;DHT22;51663;52.310;17.016;2022-08-19T15:59:07;45.30;26.80
65072;DHT22;51663;52.310;17.016;2022-08-19T16:02:28;45.20;27.00
65072;DHT22;51663;52.310;17.016;2022-08-19T16:05:49;45.20;27.00
65072;DHT22;51663;52.310;17.016;2022-08-19T16:09:10;45.20;27.10
65072;DHT22;51663;52.310;17.016;2022-08-19T16:12:13;45.20;27.10
65072;DHT22;51663;52.310;17.016;2022-08-19T16:15:17;45.10;27.20
65072;DHT22;51663;52.310;17.016;2022-08-19T16:18:21;45.10;27.30
65072;DHT22;51663;52.310;17.016;2022-08-19T16:21:25;45.00;27.10
65072;DHT22;51663;52.310;17.016;2022-08-19T16:24:28;45.00;27.20
65072;DHT22;51663;52.310;17.016;2022-08-19T16:27:30;44.90;27.20
65072;DHT22;51663;52.310;17.016;2022-08-19T16:30:32;44.90;27.40
65072;DHT22;51663;52.310;17.016;2022-08-19T16:33:34;44.80;27.30
65072;DHT22;51663;52.310;17.016;2022-08-19T16:36:36;44.80;27.50
65072;DHT22;51663;52.310;17.016;2022-08-19T16:39:43;44.70;27.50
65072;DHT22;51663;52.310;17.016;2022-08-19T16:42:45;44.60;27.70
65072;DHT22;51663;52.310;17.016;2022-08-19T16:45:49;44.40;27.70
65072;DHT22;51663;52.310;17.016;2022-08-19T16:48:53;44.40;27.70
65072;DHT22;51663;52.310;17.016;2022-08-19T16:51:55;44.30;27.90
65072;DHT22;51663;52.310;17.016;2022-08-19T16:54:58;44.20;27.90
65072;DHT22;51663;52.310;17.016;2022-08-19T16:58:00;44.10;28.00
65072;DHT22;51663;52.310;17.016;2022-08-19T17:01:08;44.00;28.10
65072;DHT22;51663;52.310;17.016;2022-08-19T17:04:11;44.00;28.20
65072;DHT22;51663;52.310;17.016;2022-08-19T17:07:14;43.90;28.10
65072;DHT22;51663;52.310;17.016;2022-08-19T17:10:16;43.90;28.10
65072;DHT22;51663;52.310;17.016;2022-08-19T17:13:20;43.80;28.40
65072;DHT22;51663;52.310;17.016;2022-08-19T17:16:26;43.80;28.40
65072;DHT22;51663;52.310;17.016;2022-08-19T17:19:29;43.80;28.40
65072;DHT22;51663;52.310;17.016;2022-08-19T17:22:31;43.90;28.30
65072;DHT22;51663;52.310;17.016;2022-08-19T17:25:33;43.80;28.40
65072;DHT22;51663;52.310;17.016;2022-08-19T17:28:35;43.60;28.50
65072;DHT22;51663;52.310;17.016;2022-08-19T17:31:37;43.50;28.70
65072;DHT22;51663;52.310;17.016;2022-08-19T17:34:42;43.50;28.60
65072;DHT22;51663;52.310;17.016;2022-08-19T17:37:47;43.50;28.50
65072;DHT22;51663;52.310;17.016;2022-08-19T17:40:52;43.40;28.70
65072;DHT22;51663;52.310;17.016;2022-08-19T17:43:56;43.40;28.90
65072;DHT22;51663;52.310;17.016;2022-08-19T17:46:58;43.30;29.40
65072;DHT22;51663;52.310;17.016;2022-08-19T17:50:01;43.30;28.70
65072;DHT22;51663;52.310;17.016;2022-08-19T17:53:05;43.30;28.70
65072;DHT22;51663;52.310;17.016;2022-08-19T17:56:18;43.20;28.80
65072;DHT22;51663;52.310;17.016;2022-08-19T17:59:27;43.10;28.90
65072;DHT22;51663;52.310;17.016;2022-08-19T18:02:31;43.10;28.70
65072;DHT22;51663;52.310;17.016;2022-08-19T18:05:40;43.10;28.90
65072;DHT22;51663;52.310;17.016;2022-08-19T18:08:43;43.10;28.80
65072;DHT22;51663;52.310;17.016;2022-08-19T18:11:47;43.00;29.10
65072;DHT22;51663;52.310;17.016;2022-08-19T18:14:53;42.90;29.20
65072;DHT22;51663;52.310;17.016;2022-08-19T18:17:56;42.90;29.30
65072;DHT22;51663;52.310;17.016;2022-08-19T18:20:58;42.80;29.40
65072;DHT22;51663;52.310;17.016;2022-08-19T18:24:02;42.60;29.40
65072;DHT22;51663;52.310;17.016;2022-08-19T18:27:04;42.70;29.50
65072;DHT22;51663;52.310;17.016;2022-08-19T18:30:08;42.50;29.70
65072;DHT22;51663;52.310;17.016;2022-08-19T18:33:11;42.50;29.60
65072;DHT22;51663;52.310;17.016;2022-08-19T18:36:16;42.50;29.60
65072;DHT22;51663;52.310;17.016;2022-08-19T18:39:38;42.50;29.70
65072;DHT22;51663;52.310;17.016;2022-08-19T18:42:59;42.70;29.70
65072;DHT22;51663;52.310;17.016;2022-08-19T18:46:20;42.80;29.40
65072;DHT22;51663;52.310;17.016;2022-08-19T18:49:41;42.60;29.70
65072;DHT22;51663;52.310;17.016;2022-08-19T18:52:43;42.50;29.70
65072;DHT22;51663;52.310;17.016;2022-08-19T18:55:46;42.50;29.80
65072;DHT22;51663;52.310;17.016;2022-08-19T18:58:50;42.50;29.80
65072;DHT22;51663;52.310;17.016;2022-08-19T19:01:55;42.40;29.90
65072;DHT22;51663;52.310;17.016;2022-08-19T19:04:58;42.50;29.90
65072;DHT22;51663;52.310;17.016;2022-08-19T19:08:06;42.50;29.80
65072;DHT22;51663;52.310;17.016;2022-08-19T19:11:08;42.60;29.80
65072;DHT22;51663;52.310;17.016;2022-08-19T19:14:14;42.60;29.70
65072;DHT22;51663;52.310;17.016;2022-08-19T19:17:37;42.60;29.90